Terminal Aerodrome Forecast
Issued by NWS

Home | Current Version | Previous Version | Text Only | Print | Product List | Glossary On
Versions: 1 2 3 4 5 6 7 8 9 10 11 12 13 14
000
FTUS43 KMPX 231700
TAFRWF
TAF
KRWF 231739Z 2318/2418 18013G18KT P6SM BKN150
     FM232200 17012KT P6SM VCSH OVC050
     FM240400 16012KT P6SM SCT025 OVC040=

USA.gov is the U.S. government's official web portal to all federal, state and local government web resources and services.